Time;durP1;ratioP1;P1;durP2;ratioP2;P2;SDS_P1;SDS_P2;PMS_P1;PMS_P2;Temp;Humidity;BMP_temperature;BMP_pressure;BME280_temperature;BME280_humidity;BME280_pressure;Samples;Min_cycle;Max_cycle;Signal;HPM_P1;HPM_P2
2020/12/14 00:02:09;;;;;;;22.10;13.67;;;5.10;72.40;;;;;;5013765;28;20030;-65
2020/12/14 00:04:36;;;;;;;20.43;13.93;;;5.00;72.60;;;;;;5013663;28;20502;-67
2020/12/14 00:07:02;;;;;;;18.50;13.13;;;5.00;72.80;;;;;;5013608;28;20049;-67
2020/12/14 00:09:27;;;;;;;20.33;13.50;;;5.00;73.00;;;;;;5013530;28;20100;-65
2020/12/14 00:11:53;;;;;;;20.30;12.33;;;4.90;73.70;;;;;;5013495;28;20030;-67
2020/12/14 00:14:19;;;;;;;66.13;30.93;;;4.90;73.30;;;;;;5013543;28;20178;-67
2020/12/14 00:16:44;;;;;;;25.63;14.23;;;4.90;73.30;;;;;;5013186;28;20041;-66
2020/12/14 00:19:10;;;;;;;11.40;7.90;;;4.90;73.60;;;;;;5013545;28;20033;-65
2020/12/14 00:21:36;;;;;;;11.77;7.90;;;4.90;74.00;;;;;;5012695;28;20033;-65
2020/12/14 00:24:01;;;;;;;11.73;6.83;;;4.90;73.90;;;;;;5013326;28;20026;-67
2020/12/14 00:26:27;;;;;;;8.70;6.27;;;4.90;74.10;;;;;;5013198;28;20037;-67
2020/12/14 00:28:53;;;;;;;9.73;6.47;;;5.00;74.10;;;;;;5012968;28;20364;-65
2020/12/14 00:31:18;;;;;;;9.50;6.37;;;5.00;74.10;;;;;;5013037;28;20038;-65
2020/12/14 00:33:46;;;;;;;9.23;6.33;;;5.00;74.10;;;;;;5013335;28;20026;-65
2020/12/14 00:36:12;;;;;;;7.80;5.33;;;5.00;74.00;;;;;;5012972;28;20033;-66
2020/12/14 00:38:39;;;;;;;7.97;5.60;;;5.00;74.10;;;;;;5013149;28;20033;-66
2020/12/14 00:41:06;;;;;;;8.80;5.77;;;5.00;74.10;;;;;;5013356;28;20033;-66
2020/12/14 00:43:31;;;;;;;39.07;21.37;;;5.10;74.10;;;;;;5013332;28;20018;-67
2020/12/14 00:45:58;;;;;;;72.63;38.87;;;5.00;73.90;;;;;;5013089;28;20037;-66
2020/12/14 00:48:23;;;;;;;74.13;41.57;;;5.00;73.90;;;;;;5013002;28;20113;-67
2020/12/14 00:50:49;;;;;;;49.90;29.70;;;5.00;73.90;;;;;;5012919;28;20164;-67
2020/12/14 00:53:15;;;;;;;24.37;14.50;;;5.00;74.70;;;;;;5012851;28;20026;-66
2020/12/14 00:55:41;;;;;;;18.00;11.77;;;5.00;74.20;;;;;;5012879;28;20034;-67
2020/12/14 00:58:06;;;;;;;14.37;8.67;;;5.00;74.20;;;;;;5012999;28;20049;-66
2020/12/14 01:00:32;;;;;;;13.47;7.93;;;5.00;74.10;;;;;;5012699;28;20041;-66
2020/12/14 01:02:58;;;;;;;9.90;6.63;;;5.00;73.60;;;;;;5013140;28;20026;-67
2020/12/14 01:05:24;;;;;;;8.40;5.57;;;4.90;73.50;;;;;;5012937;28;20040;-67
2020/12/14 01:07:49;;;;;;;7.87;5.20;;;4.90;73.70;;;;;;5012983;28;20533;-65
2020/12/14 01:10:15;;;;;;;8.63;5.80;;;4.90;74.00;;;;;;5012819;28;20556;-66
2020/12/14 01:12:41;;;;;;;8.63;5.70;;;5.00;74.20;;;;;;5013032;28;20026;-67
2020/12/14 01:15:07;;;;;;;7.90;5.60;;;5.00;74.10;;;;;;5012860;28;20148;-66
2020/12/14 01:17:33;;;;;;;7.60;5.50;;;5.00;74.00;;;;;;5012831;28;20103;-66
2020/12/14 01:19:59;;;;;;;7.93;5.33;;;5.00;73.90;;;;;;5012564;28;20060;-66
2020/12/14 01:22:25;;;;;;;6.83;4.97;;;5.10;74.00;;;;;;5012847;28;20029;-65
2020/12/14 01:24:50;;;;;;;7.17;5.40;;;5.10;73.90;;;;;;5012938;28;20022;-66
2020/12/14 01:27:16;;;;;;;6.50;5.10;;;5.10;73.80;;;;;;5012790;28;20036;-63
2020/12/14 01:29:42;;;;;;;7.40;5.20;;;5.10;73.60;;;;;;5012772;28;20022;-64
2020/12/14 01:32:08;;;;;;;9.50;5.87;;;5.10;73.60;;;;;;5013887;28;20029;-65
2020/12/14 01:34:34;;;;;;;12.50;8.10;;;5.20;73.60;;;;;;5016443;28;20494;-67
2020/12/14 01:36:59;;;;;;;8.10;6.43;;;5.20;73.50;;;;;;5016563;28;20018;-67
2020/12/14 01:39:25;;;;;;;15.23;9.20;;;5.10;73.30;;;;;;5016229;28;20121;-66
2020/12/14 01:41:51;;;;;;;16.70;9.80;;;5.10;72.70;;;;;;5016373;28;20086;-67
2020/12/14 01:44:17;;;;;;;15.97;10.23;;;5.00;72.30;;;;;;5016108;28;20026;-65
2020/12/14 01:46:44;;;;;;;13.97;9.83;;;5.00;72.20;;;;;;5016099;28;20387;-67
2020/12/14 01:49:11;;;;;;;15.10;10.03;;;4.90;72.00;;;;;;5016283;28;20026;-66
2020/12/14 01:51:37;;;;;;;16.03;10.27;;;4.80;72.10;;;;;;5015960;28;20037;-65
2020/12/14 01:54:17;;;;;;;15.67;9.80;;;4.60;72.20;;;;;;5016185;28;20024;-66
2020/12/14 01:56:43;;;;;;;21.80;13.90;;;4.50;72.80;;;;;;5016024;28;20104;-68
2020/12/14 01:59:10;;;;;;;23.17;14.27;;;4.40;72.50;;;;;;5013511;28;20052;-65
2020/12/14 02:01:35;;;;;;;23.60;15.80;;;4.30;73.10;;;;;;5013273;28;20502;-65
2020/12/14 02:04:01;;;;;;;25.87;15.83;;;4.20;72.60;;;;;;5013682;28;20033;-65
2020/12/14 02:06:27;;;;;;;23.40;15.37;;;4.10;72.70;;;;;;5015575;28;20536;-66
2020/12/14 02:08:53;;;;;;;23.73;15.20;;;4.00;72.80;;;;;;5015901;28;20029;-66
2020/12/14 02:11:18;;;;;;;23.23;15.27;;;3.90;73.40;;;;;;5015348;28;20113;-68
2020/12/14 02:13:44;;;;;;;21.50;13.93;;;3.80;73.80;;;;;;5015451;28;20022;-66
2020/12/14 02:16:10;;;;;;;20.40;14.10;;;3.70;74.00;;;;;;5015446;28;20034;-66
2020/12/14 02:18:35;;;;;;;21.80;13.77;;;3.60;74.20;;;;;;5015296;28;20057;-66
2020/12/14 02:21:01;;;;;;;24.93;14.47;;;3.70;74.50;;;;;;5015323;28;20030;-65
2020/12/14 02:23:27;;;;;;;22.67;14.83;;;3.60;74.50;;;;;;5015332;28;20022;-65
2020/12/14 02:25:52;;;;;;;22.33;13.97;;;3.50;74.70;;;;;;5015006;28;20021;-65
2020/12/14 02:28:18;;;;;;;19.70;13.63;;;3.50;75.10;;;;;;5015234;28;20099;-66
2020/12/14 02:30:44;;;;;;;18.60;13.00;;;3.50;75.40;;;;;;5015291;28;20566;-65
2020/12/14 02:33:09;;;;;;;19.37;12.60;;;3.50;75.40;;;;;;5015186;28;20549;-65
2020/12/14 02:35:35;;;;;;;19.33;12.70;;;3.50;75.30;;;;;;5015055;28;20034;-65
2020/12/14 02:38:01;;;;;;;18.53;12.47;;;3.50;75.20;;;;;;5014990;28;20070;-66
2020/12/14 02:40:26;;;;;;;18.87;12.53;;;3.50;75.20;;;;;;5015254;28;20026;-66
2020/12/14 02:42:52;;;;;;;18.77;12.27;;;3.40;75.60;;;;;;5014366;28;20502;-67
2020/12/14 02:45:18;;;;;;;17.63;12.07;;;3.40;75.50;;;;;;5014530;28;20137;-66
2020/12/14 02:47:43;;;;;;;18.33;12.50;;;3.40;75.70;;;;;;5014922;28;20360;-65
2020/12/14 02:50:09;;;;;;;18.23;11.90;;;3.40;75.80;;;;;;5014443;28;20029;-67
2020/12/14 02:52:35;;;;;;;21.23;13.23;;;3.40;75.80;;;;;;5014704;28;20041;-65
2020/12/14 02:55:00;;;;;;;21.23;12.57;;;3.40;76.30;;;;;;5014825;28;20468;-65
2020/12/14 02:57:26;;;;;;;19.47;12.63;;;3.30;76.20;;;;;;5015037;28;20029;-65
2020/12/14 02:59:52;;;;;;;19.87;12.20;;;3.30;76.40;;;;;;5014735;28;20120;-65
2020/12/14 03:02:18;;;;;;;18.37;12.70;;;3.30;76.60;;;;;;5014720;28;20029;-67
2020/12/14 03:04:43;;;;;;;18.33;12.37;;;3.30;76.80;;;;;;5014674;28;20394;-65
2020/12/14 03:07:09;;;;;;;23.20;13.13;;;3.30;77.00;;;;;;5014696;28;20092;-65
2020/12/14 03:09:35;;;;;;;19.53;12.47;;;3.30;76.80;;;;;;5014360;28;20117;-66
2020/12/14 03:12:00;;;;;;;24.37;13.87;;;3.30;76.80;;;;;;5014449;28;20026;-65
2020/12/14 03:14:26;;;;;;;24.83;14.00;;;3.30;77.10;;;;;;5014358;28;20426;-65
2020/12/14 03:16:53;;;;;;;21.33;13.53;;;3.30;76.90;;;;;;5014520;28;20172;-67
2020/12/14 03:19:19;;;;;;;22.30;13.00;;;3.30;76.60;;;;;;5014290;28;20501;-65
2020/12/14 03:21:45;;;;;;;17.30;11.40;;;3.30;76.70;;;;;;5014436;28;20026;-67
2020/12/14 03:24:11;;;;;;;15.77;9.43;;;3.30;77.00;;;;;;5014428;28;20048;-65
2020/12/14 03:26:37;;;;;;;14.27;9.37;;;3.30;77.30;;;;;;5014320;28;20121;-67
2020/12/14 03:29:04;;;;;;;16.10;8.93;;;3.30;77.70;;;;;;5014182;28;20041;-68
2020/12/14 03:31:30;;;;;;;16.47;9.67;;;3.30;77.60;;;;;;5014132;28;20554;-66
2020/12/14 03:33:57;;;;;;;14.73;9.23;;;3.40;77.70;;;;;;5014240;28;20498;-65
2020/12/14 03:36:23;;;;;;;12.73;8.57;;;3.40;77.60;;;;;;5014206;28;20056;-65
2020/12/14 03:38:50;;;;;;;14.63;9.13;;;3.40;77.50;;;;;;5014317;28;20046;-66
2020/12/14 03:41:16;;;;;;;12.33;8.47;;;3.40;77.30;;;;;;5013802;28;20505;-65
2020/12/14 03:43:42;;;;;;;11.07;7.60;;;3.40;77.40;;;;;;5014080;28;20052;-67
2020/12/14 03:46:20;;;;;;;13.53;8.30;;;3.50;77.40;;;;;;5014261;28;20026;-66
2020/12/14 03:48:45;;;;;;;12.20;8.47;;;3.40;77.20;;;;;;5013948;28;20025;-65
2020/12/14 03:51:12;;;;;;;14.70;9.37;;;3.50;76.90;;;;;;5013654;28;20038;-66
2020/12/14 03:53:38;;;;;;;13.60;9.03;;;3.50;76.60;;;;;;5013886;28;20386;-66
2020/12/14 03:56:04;;;;;;;13.57;9.30;;;3.50;76.40;;;;;;5013414;28;20022;-65
2020/12/14 03:58:30;;;;;;;16.20;9.30;;;3.40;76.20;;;;;;5013896;28;20041;-65
2020/12/14 04:00:56;;;;;;;16.10;9.13;;;3.40;76.80;;;;;;5013811;28;20490;-67
2020/12/14 04:03:23;;;;;;;13.80;8.13;;;3.40;76.50;;;;;;5013791;28;20029;-68
2020/12/14 04:05:49;;;;;;;11.17;7.83;;;3.40;77.00;;;;;;5013606;28;20040;-65
2020/12/14 04:08:16;;;;;;;13.20;7.50;;;3.40;76.90;;;;;;5013453;28;20029;-67
2020/12/14 04:10:42;;;;;;;11.47;7.50;;;3.40;76.90;;;;;;5013361;28;20378;-66
2020/12/14 04:13:08;;;;;;;10.60;7.00;;;3.40;76.70;;;;;;5013543;28;20033;-66
2020/12/14 04:15:33;;;;;;;10.60;7.20;;;3.40;76.70;;;;;;5013562;28;20036;-66
2020/12/14 04:17:59;;;;;;;9.57;6.50;;;3.40;77.00;;;;;;5013191;28;20057;-67
2020/12/14 04:20:25;;;;;;;11.77;7.33;;;3.40;77.20;;;;;;5013469;28;20053;-67
2020/12/14 04:22:50;;;;;;;10.77;7.50;;;3.40;77.10;;;;;;5013468;28;20037;-67
2020/12/14 04:25:16;;;;;;;10.40;7.00;;;3.40;76.90;;;;;;5013412;28;20061;-65
2020/12/14 04:27:43;;;;;;;7.50;5.37;;;3.40;77.20;;;;;;5013449;28;20113;-65
2020/12/14 04:30:09;;;;;;;7.10;4.93;;;3.50;77.60;;;;;;5013247;28;20030;-65
2020/12/14 04:32:35;;;;;;;7.17;4.67;;;3.60;78.20;;;;;;5013387;28;20025;-65
2020/12/14 04:35:01;;;;;;;7.40;5.07;;;3.60;78.40;;;;;;5013081;28;20488;-67
2020/12/14 04:37:26;;;;;;;6.23;4.80;;;3.70;78.50;;;;;;5013427;28;20022;-66
2020/12/14 04:39:52;;;;;;;11.27;5.53;;;3.80;78.50;;;;;;5013153;28;20022;-65
2020/12/14 04:42:18;;;;;;;10.67;6.93;;;3.90;78.30;;;;;;5013263;28;20041;-66
2020/12/14 04:44:44;;;;;;;12.57;8.20;;;3.90;77.10;;;;;;5013359;28;20033;-68
2020/12/14 04:47:12;;;;;;;15.23;8.20;;;3.90;76.10;;;;;;5013399;28;20430;-66
2020/12/14 04:49:40;;;;;;;11.60;8.00;;;3.80;75.60;;;;;;5013014;28;20053;-64
2020/12/14 04:52:07;;;;;;;13.03;8.70;;;3.70;75.30;;;;;;5012968;28;20129;-65
2020/12/14 04:54:33;;;;;;;15.47;8.97;;;3.70;75.30;;;;;;5013051;28;20029;-67
2020/12/14 04:57:07;;;;;;;16.30;9.17;;;3.60;75.40;;;;;;5013218;28;20030;-66
2020/12/14 04:59:33;;;;;;;14.83;9.30;;;3.50;75.40;;;;;;5013039;28;20538;-65
2020/12/14 05:02:05;;;;;;;15.23;8.90;;;3.40;76.00;;;;;;5012758;28;20029;-66
2020/12/14 05:04:31;;;;;;;17.95;9.05;;;3.40;76.40;;;;;;5012937;28;20072;-64
2020/12/14 05:06:56;;;;;;;14.43;9.57;;;3.40;76.60;;;;;;5013925;28;20022;-66
2020/12/14 05:09:22;;;;;;;13.97;9.07;;;3.30;76.60;;;;;;5017208;28;20026;-66
2020/12/14 05:11:48;;;;;;;12.43;8.73;;;3.30;76.70;;;;;;5017021;28;20099;-64
2020/12/14 05:14:19;;;;;;;13.77;8.90;;;3.20;76.70;;;;;;5016665;28;20049;-65
2020/12/14 05:16:45;;;;;;;13.30;8.97;;;3.20;76.90;;;;;;5016497;28;20034;-65
2020/12/14 05:19:25;;;;;;;14.93;9.17;;;3.20;77.20;;;;;;5016715;28;20399;-66
2020/12/14 05:21:55;;;;;;;15.50;9.17;;;3.20;77.70;;;;;;5016685;28;20033;-67
2020/12/14 05:24:28;;;;;;;14.53;9.20;;;3.20;78.00;;;;;;5016476;28;20034;-66
2020/12/14 05:26:55;;;;;;;15.73;10.07;;;3.20;78.30;;;;;;5016559;28;20051;-65
2020/12/14 05:29:28;;;;;;;14.53;9.73;;;3.20;78.40;;;;;;5016566;28;20087;-65
2020/12/14 05:32:05;;;;;;;14.45;9.15;;;3.20;78.40;;;;;;5016444;28;20510;-67
2020/12/14 05:34:33;;;;;;;14.37;9.30;;;3.20;78.40;;;;;;5016474;28;20022;-66
2020/12/14 05:37:01;;;;;;;16.33;9.10;;;3.20;78.30;;;;;;5016418;28;20033;-65
2020/12/14 05:39:30;;;;;;;13.83;9.00;;;3.10;78.60;;;;;;5016421;28;20367;-65
2020/12/14 05:42:17;;;;;;;12.13;8.43;;;3.20;78.90;;;;;;5016515;28;20025;-66
2020/12/14 05:44:45;;;;;;;14.47;8.53;;;3.20;78.90;;;;;;5016356;28;20025;-65
2020/12/14 05:47:28;;;;;;;13.73;8.77;;;3.20;78.90;;;;;;5016356;28;20045;-66
2020/12/14 05:50:06;;;;;;;14.60;8.93;;;3.20;78.80;;;;;;5016405;28;20022;-65
2020/12/14 05:52:33;;;;;;;14.83;8.77;;;3.20;78.80;;;;;;5016055;28;20033;-65
2020/12/14 05:55:01;;;;;;;13.50;8.93;;;3.20;78.50;;;;;;5015912;28;20026;-65
2020/12/14 05:57:37;;;;;;;14.50;8.80;;;3.20;78.40;;;;;;5016110;28;20483;-65
2020/12/14 06:00:10;;;;;;;15.53;9.63;;;3.20;78.50;;;;;;5016159;28;20030;-65
2020/12/14 06:02:36;;;;;;;14.30;9.13;;;3.20;78.40;;;;;;5015907;28;20064;-65
2020/12/14 06:05:04;;;;;;;16.17;9.23;;;3.20;78.40;;;;;;5015652;28;20029;-65
2020/12/14 06:07:31;;;;;;;20.03;9.73;;;3.20;78.50;;;;;;5015673;28;20475;-65
2020/12/14 06:10:10;;;;;;;22.13;10.67;;;3.10;78.20;;;;;;5015579;28;20446;-65
2020/12/14 06:12:39;;;;;;;16.63;9.23;;;3.10;78.30;;;;;;5015842;28;20036;-65
2020/12/14 06:15:07;;;;;;;14.00;8.83;;;3.10;78.20;;;;;;5015937;28;20033;-64
2020/12/14 06:17:36;;;;;;;15.73;9.63;;;3.10;78.10;;;;;;5015707;28;20062;-65
2020/12/14 06:20:07;;;;;;;16.10;9.73;;;3.00;77.90;;;;;;5015684;28;20033;-65
2020/12/14 06:22:33;;;;;;;15.63;9.23;;;3.00;78.10;;;;;;5015768;28;20418;-65
2020/12/14 06:25:02;;;;;;;17.07;9.40;;;3.00;78.10;;;;;;5014998;28;20058;-65
2020/12/14 06:27:28;;;;;;;14.60;8.50;;;3.00;78.00;;;;;;5014020;28;20038;-65
2020/12/14 06:29:54;;;;;;;12.77;8.67;;;3.00;78.10;;;;;;5015560;28;20036;-65
2020/12/14 06:32:34;;;;;;;16.20;8.67;;;3.00;78.10;;;;;;5015577;28;20131;-65
2020/12/14 06:34:59;;;;;;;15.47;10.07;;;2.90;78.10;;;;;;5015393;28;20030;-65
2020/12/14 06:37:46;;;;;;;16.10;9.67;;;2.90;78.20;;;;;;5015629;28;20014;-65
2020/12/14 06:40:12;;;;;;;16.70;9.10;;;2.80;78.00;;;;;;5015633;28;20387;-65
2020/12/14 06:42:37;;;;;;;14.37;9.10;;;2.80;77.90;;;;;;5015163;28;20053;-65
2020/12/14 06:45:06;;;;;;;12.33;8.73;;;2.80;77.90;;;;;;5015359;28;20058;-65
2020/12/14 06:47:45;;;;;;;13.17;8.63;;;2.70;77.80;;;;;;5015304;28;20121;-65
2020/12/14 06:50:32;;;;;;;14.50;8.73;;;2.70;78.10;;;;;;5014975;28;20112;-65
2020/12/14 06:53:01;;;;;;;19.97;11.70;;;2.60;78.30;;;;;;5014872;28;20471;-66
2020/12/14 06:55:54;;;;;;;19.57;12.30;;;2.70;78.60;;;;;;5015135;28;20555;-65
2020/12/14 06:58:39;;;;;;;19.43;12.67;;;2.60;78.90;;;;;;5011137;28;20041;-65
2020/12/14 07:01:35;;;;;;;21.53;13.67;;;2.60;79.00;;;;;;5012133;28;20533;-64
2020/12/14 07:04:16;;;;;;;23.43;14.97;;;2.70;79.30;;;;;;5012846;28;20022;-66
2020/12/14 07:06:42;;;;;;;24.40;14.23;;;2.70;79.70;;;;;;5014368;28;20395;-65
2020/12/14 07:09:33;;;;;;;20.63;13.50;;;2.70;79.80;;;;;;5014810;28;20028;-65
2020/12/14 07:12:11;;;;;;;24.30;14.87;;;2.70;79.80;;;;;;5014395;28;20044;-65
2020/12/14 07:14:49;;;;;;;25.27;16.33;;;2.70;80.00;;;;;;5014458;28;20065;-65
2020/12/14 07:17:25;;;;;;;24.67;13.97;;;2.70;80.10;;;;;;5014426;28;20509;-65
2020/12/14 07:19:53;;;;;;;22.73;12.87;;;2.70;80.10;;;;;;5014123;28;20483;-65
2020/12/14 07:22:20;;;;;;;19.70;12.33;;;2.80;80.20;;;;;;5014336;28;20109;-65
2020/12/14 07:24:58;;;;;;;18.47;11.63;;;2.80;80.20;;;;;;5013404;28;20053;-65
2020/12/14 07:27:24;;;;;;;15.67;9.97;;;2.90;80.50;;;;;;5011492;28;20057;-66
2020/12/14 07:29:50;;;;;;;13.13;8.77;;;2.90;80.40;;;;;;5010525;28;20080;-65
2020/12/14 07:32:16;;;;;;;13.60;8.20;;;3.00;80.80;;;;;;5012782;28;20033;-65
2020/12/14 07:34:52;;;;;;;13.50;8.87;;;3.10;81.00;;;;;;5014279;28;20490;-65
2020/12/14 07:37:21;;;;;;;12.10;8.70;;;3.20;80.80;;;;;;5012583;28;20030;-65
2020/12/14 07:39:48;;;;;;;15.47;8.70;;;3.30;80.80;;;;;;5013585;28;20021;-65
2020/12/14 07:42:37;;;;;;;14.30;8.73;;;3.40;80.50;;;;;;5014085;28;20422;-65
2020/12/14 07:45:18;;;;;;;14.73;9.37;;;3.50;80.20;;;;;;5013912;28;20034;-64
2020/12/14 07:47:46;;;;;;;13.83;8.90;;;3.60;80.30;;;;;;5012530;28;20091;-65
2020/12/14 07:50:18;;;;;;;14.07;9.50;;;3.70;80.30;;;;;;5013246;28;20490;-65
2020/12/14 07:52:46;;;;;;;14.70;10.57;;;3.90;80.10;;;;;;5013305;28;20033;-65
2020/12/14 07:55:13;;;;;;;18.67;10.63;;;4.00;79.90;;;;;;5014078;28;20328;-65
2020/12/14 07:57:42;;;;;;;16.77;10.17;;;4.10;79.60;;;;;;5014137;28;20025;-64
2020/12/14 08:00:10;;;;;;;13.57;9.07;;;4.30;79.50;;;;;;5013950;28;20053;-64
2020/12/14 08:02:38;;;;;;;15.13;8.47;;;4.40;79.10;;;;;;5014002;28;20546;-65
2020/12/14 08:05:05;;;;;;;16.30;9.40;;;4.50;78.80;;;;;;5012126;28;20030;-65
2020/12/14 08:07:40;;;;;;;11.20;6.80;;;4.60;78.30;;;;;;5013041;28;20022;-65
2020/12/14 08:10:08;;;;;;;7.90;5.47;;;4.70;77.80;;;;;;5012749;28;20026;-65
2020/12/14 08:12:38;;;;;;;7.23;5.27;;;4.80;77.30;;;;;;5013659;28;20109;-65
2020/12/14 08:15:15;;;;;;;6.07;4.33;;;5.00;77.00;;;;;;5013333;28;20018;-65
2020/12/14 08:17:42;;;;;;;8.93;5.30;;;5.10;76.40;;;;;;5013565;28;20048;-65
2020/12/14 08:20:29;;;;;;;8.27;5.43;;;5.20;76.20;;;;;;5013756;28;20022;-65
2020/12/14 08:22:58;;;;;;;6.03;4.70;;;5.30;75.80;;;;;;5013689;28;20144;-65
2020/12/14 08:25:29;;;;;;;8.23;4.73;;;5.40;75.40;;;;;;5013657;28;20460;-65
2020/12/14 08:27:56;;;;;;;8.23;4.63;;;5.50;75.00;;;;;;5013542;28;20022;-65
2020/12/14 08:30:25;;;;;;;6.50;4.50;;;5.60;74.70;;;;;;5013478;28;20040;-65
2020/12/14 08:33:14;;;;;;;6.23;4.50;;;5.70;74.60;;;;;;5013398;28;20382;-65
2020/12/14 08:35:44;;;;;;;10.90;5.23;;;5.80;74.30;;;;;;5013217;28;20021;-65
2020/12/14 08:38:15;;;;;;;9.23;4.90;;;5.90;74.10;;;;;;5013574;28;20541;-65
2020/12/14 08:40:56;;;;;;;8.37;4.33;;;6.00;73.80;;;;;;5013271;28;20038;-65
2020/12/14 08:43:24;;;;;;;6.70;4.30;;;6.10;73.50;;;;;;5012825;28;20030;-65
2020/12/14 08:46:14;;;;;;;7.60;3.73;;;6.10;73.30;;;;;;5013429;28;20257;-65
2020/12/14 08:48:40;;;;;;;8.27;4.13;;;6.20;72.80;;;;;;5013497;28;20406;-65
2020/12/14 08:51:14;;;;;;;5.93;4.33;;;6.30;72.50;;;;;;5013357;28;20088;-65
2020/12/14 08:53:42;;;;;;;10.70;5.20;;;6.40;72.20;;;;;;5013274;28;20467;-65
2020/12/14 08:56:10;;;;;;;9.23;5.90;;;6.50;72.00;;;;;;5013159;28;20080;-65
2020/12/14 08:58:52;;;;;;;10.00;6.33;;;6.60;71.80;;;;;;5013123;28;20030;-65
2020/12/14 09:01:27;;;;;;;9.05;5.18;;;6.60;71.60;;;;;;5013465;28;20036;-65
2020/12/14 09:03:54;;;;;;;11.30;4.77;;;6.70;71.30;;;;;;5013747;28;20029;-65
2020/12/14 09:06:28;;;;;;;6.37;4.17;;;6.80;71.00;;;;;;5012901;28;20033;-65
2020/12/14 09:09:05;;;;;;;6.60;3.53;;;6.90;71.00;;;;;;5013562;28;20022;-65
2020/12/14 09:11:33;;;;;;;11.70;4.27;;;7.00;70.70;;;;;;5013369;28;20588;-65
2020/12/14 09:14:01;;;;;;;9.30;3.97;;;7.10;70.30;;;;;;5008569;28;20145;-65
2020/12/14 09:16:27;;;;;;;9.70;3.73;;;7.20;70.00;;;;;;5010450;28;20034;-65
2020/12/14 09:18:53;;;;;;;6.33;3.40;;;7.30;69.70;;;;;;5010116;28;20469;-65
2020/12/14 09:21:19;;;;;;;4.53;3.20;;;7.40;69.60;;;;;;5013003;28;20101;-65
2020/12/14 09:24:05;;;;;;;7.63;3.10;;;7.50;69.20;;;;;;5013076;28;20104;-66
2020/12/14 09:26:31;;;;;;;4.80;3.10;;;7.60;68.80;;;;;;5012968;28;20386;-65
2020/12/14 09:28:56;;;;;;;4.10;3.07;;;7.60;68.20;;;;;;5013194;28;20030;-65
2020/12/14 09:31:22;;;;;;;5.50;3.13;;;7.80;68.10;;;;;;5012978;28;20037;-64
2020/12/14 09:33:47;;;;;;;4.70;3.17;;;7.80;67.80;;;;;;5012995;28;20022;-65
2020/12/14 09:36:16;;;;;;;5.30;3.20;;;7.90;67.70;;;;;;5012816;28;20026;-65
2020/12/14 09:38:42;;;;;;;4.10;2.90;;;7.90;67.50;;;;;;5013216;28;20030;-65
2020/12/14 09:41:08;;;;;;;4.20;3.13;;;8.00;67.40;;;;;;5013012;28;20490;-65
2020/12/14 09:43:34;;;;;;;5.37;3.00;;;8.10;67.10;;;;;;5012778;28;20056;-65
2020/12/14 09:46:00;;;;;;;9.20;2.90;;;8.20;67.00;;;;;;5012851;28;20140;-65
2020/12/14 09:48:25;;;;;;;9.10;3.23;;;8.30;66.80;;;;;;5012880;28;20030;-65
2020/12/14 09:50:51;;;;;;;5.97;2.70;;;8.30;66.60;;;;;;5012720;28;20077;-65
2020/12/14 09:53:17;;;;;;;5.53;3.30;;;8.40;66.60;;;;;;5014430;28;20105;-65
2020/12/14 09:55:43;;;;;;;13.23;7.77;;;8.50;66.50;;;;;;5016338;28;20040;-65
2020/12/14 09:58:09;;;;;;;17.20;11.67;;;8.60;66.30;;;;;;5016466;28;20018;-65
2020/12/14 10:00:35;;;;;;;17.70;10.97;;;8.70;66.90;;;;;;5016389;28;20037;-65
2020/12/14 10:03:00;;;;;;;33.07;18.77;;;8.80;67.20;;;;;;5016144;28;20403;-65
2020/12/14 10:05:26;;;;;;;24.80;17.13;;;8.80;67.00;;;;;;5015970;28;20105;-65
2020/12/14 10:07:52;;;;;;;25.63;14.10;;;8.90;66.90;;;;;;5013897;28;20037;-66
2020/12/14 10:10:17;;;;;;;16.63;10.70;;;9.00;66.60;;;;;;5015424;28;20109;-68
2020/12/14 10:12:43;;;;;;;17.53;6.43;;;9.00;66.60;;;;;;5015249;28;20100;-65
2020/12/14 10:15:09;;;;;;;14.97;5.50;;;9.10;65.90;;;;;;5015120;28;20029;-67
2020/12/14 10:17:36;;;;;;;3.87;2.50;;;9.20;65.60;;;;;;5015361;28;20176;-66
2020/12/14 10:20:04;;;;;;;5.57;3.40;;;9.30;65.00;;;;;;5015333;28;20521;-65
2020/12/14 10:22:30;;;;;;;11.17;7.40;;;9.40;64.50;;;;;;5015154;28;20038;-66
2020/12/14 10:24:56;;;;;;;8.03;4.87;;;9.50;64.50;;;;;;5015164;28;20026;-66
2020/12/14 10:27:22;;;;;;;9.50;2.57;;;9.70;64.80;;;;;;5015297;28;20040;-65
2020/12/14 10:29:47;;;;;;;3.87;1.90;;;9.70;64.60;;;;;;5015666;28;20133;-65
2020/12/14 10:32:14;;;;;;;4.80;2.27;;;9.80;63.80;;;;;;5015989;28;20079;-65
2020/12/14 10:34:39;;;;;;;9.67;7.50;;;9.90;63.60;;;;;;5015698;28;20037;-65
2020/12/14 10:37:06;;;;;;;5.70;1.90;;;9.90;63.30;;;;;;5015787;28;20108;-65
2020/12/14 10:39:32;;;;;;;2.57;1.80;;;10.10;62.60;;;;;;5015656;28;20030;-66
2020/12/14 10:41:57;;;;;;;4.32;2.30;;;10.20;62.10;;;;;;5015782;28;20037;-65
2020/12/14 10:44:23;;;;;;;3.55;2.47;;;10.30;61.70;;;;;;5015376;28;20026;-65
2020/12/14 10:46:49;;;;;;;3.80;2.05;;;10.40;61.40;;;;;;5015161;28;20410;-65
2020/12/14 10:49:14;;;;;;;3.38;2.20;;;10.50;61.00;;;;;;5015506;28;20065;-65
2020/12/14 10:51:40;;;;;;;4.93;1.85;;;10.60;60.50;;;;;;5015372;28;20045;-66
2020/12/14 10:54:06;;;;;;;2.63;1.88;;;10.70;60.20;;;;;;5013712;28;20037;-65
2020/12/14 10:56:31;;;;;;;2.47;2.20;;;10.80;60.20;;;;;;5015196;28;20112;-65
2020/12/14 10:58:57;;;;;;;5.18;2.40;;;10.90;59.90;;;;;;5012650;28;20052;-66
2020/12/14 11:01:23;;;;;;;3.80;2.72;;;11.00;60.00;;;;;;5012088;28;20470;-65
2020/12/14 11:03:49;;;;;;;5.10;2.22;;;11.10;60.10;;;;;;5013240;28;20026;-65
2020/12/14 11:06:15;;;;;;;4.85;2.03;;;11.10;59.80;;;;;;5014540;28;20034;-65
2020/12/14 11:08:40;;;;;;;3.30;2.40;;;11.20;59.50;;;;;;5014821;28;20379;-65
2020/12/14 11:11:06;;;;;;;6.47;2.60;;;11.30;59.10;;;;;;5014454;28;20037;-65
2020/12/14 11:13:32;;;;;;;3.85;2.42;;;11.30;58.90;;;;;;5015014;28;20029;-65
2020/12/14 11:15:59;;;;;;;4.05;2.75;;;11.40;59.00;;;;;;5014692;28;20026;-65
2020/12/14 11:18:25;;;;;;;3.20;2.30;;;11.40;58.90;;;;;;5014591;28;20045;-65
2020/12/14 11:20:51;;;;;;;11.10;2.30;;;11.50;58.60;;;;;;5014734;28;20033;-65
2020/12/14 11:23:16;;;;;;;5.53;2.97;;;11.60;58.90;;;;;;5013231;28;20092;-65
2020/12/14 11:25:42;;;;;;;6.05;2.58;;;11.60;58.60;;;;;;5011540;28;20029;-66
2020/12/14 11:28:08;;;;;;;3.42;2.33;;;11.70;58.40;;;;;;5010279;28;20026;-66
2020/12/14 11:30:33;;;;;;;3.50;1.98;;;11.80;58.20;;;;;;5012144;28;20030;-65
2020/12/14 11:32:59;;;;;;;3.88;2.58;;;11.80;58.10;;;;;;5014349;28;20109;-66
2020/12/14 11:35:25;;;;;;;5.80;2.70;;;11.90;57.80;;;;;;5014136;28;20025;-66
2020/12/14 11:37:50;;;;;;;5.80;3.33;;;11.90;57.90;;;;;;5014076;28;20352;-65
2020/12/14 11:40:16;;;;;;;5.15;3.40;;;11.90;57.50;;;;;;5014487;28;20022;-66
2020/12/14 11:42:42;;;;;;;4.93;3.05;;;12.00;57.40;;;;;;5014111;28;20495;-65
2020/12/14 11:45:09;;;;;;;6.95;2.78;;;12.00;57.00;;;;;;5014030;28;20048;-66
2020/12/14 11:47:35;;;;;;;4.38;2.30;;;12.00;57.30;;;;;;5014521;28;20465;-65
2020/12/14 11:50:06;;;;;;;4.97;2.22;;;12.10;57.30;;;;;;5014292;28;20053;-69
2020/12/14 11:52:32;;;;;;;3.20;2.00;;;12.10;56.90;;;;;;5014079;28;20079;-64
2020/12/14 11:54:58;;;;;;;2.70;1.90;;;12.10;57.20;;;;;;5013685;28;20026;-64
2020/12/14 11:57:23;;;;;;;3.47;2.10;;;12.20;57.20;;;;;;5013856;28;20030;-64
2020/12/14 11:59:49;;;;;;;3.10;2.30;;;12.10;57.40;;;;;;5013938;28;20380;-66
2020/12/14 12:02:15;;;;;;;3.40;1.98;;;12.10;57.10;;;;;;5013693;28;20057;-66
2020/12/14 12:04:42;;;;;;;3.35;2.40;;;12.10;57.90;;;;;;5013572;28;20116;-64
2020/12/14 12:07:08;;;;;;;7.93;2.30;;;12.10;57.20;;;;;;5013582;28;20022;-64
2020/12/14 12:09:36;;;;;;;2.97;2.08;;;12.10;56.40;;;;;;5013019;28;20486;-64
2020/12/14 12:12:04;;;;;;;3.05;2.20;;;12.10;56.70;;;;;;5013751;28;20030;-64
2020/12/14 12:14:31;;;;;;;5.75;2.20;;;12.10;56.50;;;;;;5013500;28;20029;-64
2020/12/14 12:16:57;;;;;;;5.85;3.15;;;12.10;56.60;;;;;;5013426;28;20408;-64
2020/12/14 12:19:22;;;;;;;7.38;2.25;;;12.00;56.70;;;;;;5013803;28;20029;-64
2020/12/14 12:21:49;;;;;;;5.28;2.22;;;12.00;56.80;;;;;;5013536;28;20026;-64
2020/12/14 12:24:15;;;;;;;2.85;1.90;;;12.00;57.00;;;;;;5011979;28;20425;-64
2020/12/14 12:26:41;;;;;;;3.50;2.25;;;12.00;56.70;;;;;;5011939;28;20030;-64
2020/12/14 12:29:06;;;;;;;2.95;2.30;;;12.00;56.80;;;;;;5013395;28;20026;-64
2020/12/14 12:31:32;;;;;;;3.13;1.77;;;12.00;56.70;;;;;;5011728;28;20070;-64
2020/12/14 12:33:58;;;;;;;2.55;1.70;;;12.00;56.50;;;;;;5010713;28;20029;-64
2020/12/14 12:36:23;;;;;;;3.95;1.70;;;12.00;56.50;;;;;;5010647;28;20070;-65
2020/12/14 12:38:49;;;;;;;4.45;1.60;;;12.10;56.00;;;;;;5012382;28;20026;-65
2020/12/14 12:41:15;;;;;;;3.45;1.60;;;12.00;56.00;;;;;;5013057;28;20037;-65
2020/12/14 12:43:41;;;;;;;2.10;1.30;;;12.00;55.90;;;;;;5013256;28;20044;-65
2020/12/14 12:46:06;;;;;;;2.47;1.83;;;12.00;55.90;;;;;;5013114;28;20113;-65
2020/12/14 12:48:32;;;;;;;3.10;2.05;;;12.00;55.90;;;;;;5012979;28;20022;-65
2020/12/14 12:50:58;;;;;;;2.40;1.70;;;12.00;55.90;;;;;;5013000;28;20042;-64